sensor_id;sensor_type;location;lat;lon;timestamp;pressure;altitude;pressure_sealevel;temperature;humidity
23059;BME280;30585;51.502;7.218;2023-08-06T00:01:09;99631.09;;;15.10;87.53
23059;BME280;30585;51.502;7.218;2023-08-06T00:03:37;99627.00;;;15.06;88.52
23059;BME280;30585;51.502;7.218;2023-08-06T00:06:05;99518.34;;;14.30;87.43
23059;BME280;30585;51.502;7.218;2023-08-06T00:08:35;99592.22;;;14.67;88.45
23059;BME280;30585;51.502;7.218;2023-08-06T00:11:02;99633.97;;;15.09;87.84
23059;BME280;30585;51.502;7.218;2023-08-06T00:13:30;99637.81;;;14.90;88.01
23059;BME280;30585;51.502;7.218;2023-08-06T00:16:08;99610.28;;;14.93;88.65
23059;BME280;30585;51.502;7.218;2023-08-06T00:18:36;99625.25;;;14.97;87.83
23059;BME280;30585;51.502;7.218;2023-08-06T00:21:04;99641.28;;;15.08;87.98
23059;BME280;30585;51.502;7.218;2023-08-06T00:23:32;99621.88;;;15.03;87.58
23059;BME280;30585;51.502;7.218;2023-08-06T00:26:01;99618.31;;;15.02;87.50
23059;BME280;30585;51.502;7.218;2023-08-06T00:28:29;99625.94;;;14.91;87.90
23059;BME280;30585;51.502;7.218;2023-08-06T00:30:57;99591.53;;;14.74;87.88
23059;BME280;30585;51.502;7.218;2023-08-06T00:33:25;99552.97;;;14.62;88.33
23059;BME280;30585;51.502;7.218;2023-08-06T00:35:53;99606.59;;;15.02;87.50
23059;BME280;30585;51.502;7.218;2023-08-06T00:38:20;99611.81;;;14.95;87.79
23059;BME280;30585;51.502;7.218;2023-08-06T00:40:48;99608.41;;;14.93;87.76
23059;BME280;30585;51.502;7.218;2023-08-06T00:43:17;99608.31;;;15.03;87.24
23059;BME280;30585;51.502;7.218;2023-08-06T00:45:45;99503.97;;;14.37;86.93
23059;BME280;30585;51.502;7.218;2023-08-06T00:48:13;99602.53;;;15.06;86.74
23059;BME280;30585;51.502;7.218;2023-08-06T00:50:41;99597.59;;;15.01;87.14
23059;BME280;30585;51.502;7.218;2023-08-06T00:53:09;99436.66;;;14.07;86.55
23059;BME280;30585;51.502;7.218;2023-08-06T00:55:37;99603.50;;;14.97;86.77
23059;BME280;30585;51.502;7.218;2023-08-06T00:58:05;99609.81;;;14.97;87.06
23059;BME280;30585;51.502;7.218;2023-08-06T01:00:35;99584.50;;;14.97;86.86
23059;BME280;30585;51.502;7.218;2023-08-06T01:03:03;99495.66;;;14.39;86.90
23059;BME280;30585;51.502;7.218;2023-08-06T01:05:31;99532.81;;;14.73;86.26
23059;BME280;30585;51.502;7.218;2023-08-06T01:08:11;99577.03;;;14.91;86.68
23059;BME280;30585;51.502;7.218;2023-08-06T01:10:51;99571.06;;;14.87;86.97
23059;BME280;30585;51.502;7.218;2023-08-06T01:13:27;99591.28;;;14.93;87.00
23059;BME280;30585;51.502;7.218;2023-08-06T01:16:01;99567.19;;;14.98;86.56
23059;BME280;30585;51.502;7.218;2023-08-06T01:18:30;99569.88;;;14.90;86.88
23059;BME280;30585;51.502;7.218;2023-08-06T01:21:01;99450.09;;;14.17;87.24
23059;BME280;30585;51.502;7.218;2023-08-06T01:23:29;99582.56;;;14.81;87.81
23059;BME280;30585;51.502;7.218;2023-08-06T01:26:02;99572.25;;;14.85;87.52
23059;BME280;30585;51.502;7.218;2023-08-06T01:28:40;99578.16;;;14.80;86.90
23059;BME280;30585;51.502;7.218;2023-08-06T01:31:15;99553.22;;;14.85;87.58
23059;BME280;30585;51.502;7.218;2023-08-06T01:33:46;99574.28;;;14.83;87.19
23059;BME280;30585;51.502;7.218;2023-08-06T01:36:17;99450.44;;;14.14;86.94
23059;BME280;30585;51.502;7.218;2023-08-06T01:38:46;99549.19;;;14.89;87.63
23059;BME280;30585;51.502;7.218;2023-08-06T01:41:14;99540.66;;;14.84;87.28
23059;BME280;30585;51.502;7.218;2023-08-06T01:43:42;99562.59;;;14.90;87.25
23059;BME280;30585;51.502;7.218;2023-08-06T01:46:10;99459.16;;;14.33;87.26
23059;BME280;30585;51.502;7.218;2023-08-06T01:48:38;99548.00;;;14.99;87.16
23059;BME280;30585;51.502;7.218;2023-08-06T01:51:06;99527.41;;;14.81;87.11
23059;BME280;30585;51.502;7.218;2023-08-06T01:53:35;99403.94;;;14.00;87.50
23059;BME280;30585;51.502;7.218;2023-08-06T01:56:03;99440.97;;;14.26;87.94
23059;BME280;30585;51.502;7.218;2023-08-06T01:58:31;99244.53;;;13.10;86.39
23059;BME280;30585;51.502;7.218;2023-08-06T02:00:59;99499.88;;;14.67;85.99
23059;BME280;30585;51.502;7.218;2023-08-06T02:03:27;99565.63;;;14.95;86.96
23059;BME280;30585;51.502;7.218;2023-08-06T02:05:55;99553.06;;;14.94;86.81
23059;BME280;30585;51.502;7.218;2023-08-06T02:08:22;99523.81;;;14.72;86.92
23059;BME280;30585;51.502;7.218;2023-08-06T02:10:51;99540.66;;;14.92;86.99
23059;BME280;30585;51.502;7.218;2023-08-06T02:13:20;99539.50;;;14.94;86.94
23059;BME280;30585;51.502;7.218;2023-08-06T02:15:48;99535.91;;;14.86;87.39
23059;BME280;30585;51.502;7.218;2023-08-06T02:18:15;99532.34;;;14.85;87.16
23059;BME280;30585;51.502;7.218;2023-08-06T02:20:43;99458.97;;;14.27;86.59
23059;BME280;30585;51.502;7.218;2023-08-06T02:23:11;99448.22;;;14.43;86.43
23059;BME280;30585;51.502;7.218;2023-08-06T02:25:39;99525.75;;;14.88;86.75
23059;BME280;30585;51.502;7.218;2023-08-06T02:28:08;99501.06;;;14.65;86.56
23059;BME280;30585;51.502;7.218;2023-08-06T02:30:36;99394.59;;;14.03;86.42
23059;BME280;30585;51.502;7.218;2023-08-06T02:33:03;99530.16;;;14.89;86.72
23059;BME280;30585;51.502;7.218;2023-08-06T02:35:31;99445.44;;;14.35;86.25
23059;BME280;30585;51.502;7.218;2023-08-06T02:37:59;99522.34;;;14.94;86.90
23059;BME280;30585;51.502;7.218;2023-08-06T02:40:27;99526.75;;;14.95;86.53
23059;BME280;30585;51.502;7.218;2023-08-06T02:42:55;99494.44;;;14.67;86.48
23059;BME280;30585;51.502;7.218;2023-08-06T02:45:24;99515.88;;;14.87;86.83
23059;BME280;30585;51.502;7.218;2023-08-06T02:47:52;99441.41;;;14.47;86.26
23059;BME280;30585;51.502;7.218;2023-08-06T02:50:20;99529.31;;;14.88;85.91
23059;BME280;30585;51.502;7.218;2023-08-06T02:52:49;99505.34;;;14.84;86.63
23059;BME280;30585;51.502;7.218;2023-08-06T02:55:16;99496.31;;;14.75;86.31
23059;BME280;30585;51.502;7.218;2023-08-06T02:57:44;99496.16;;;14.77;86.39
23059;BME280;30585;51.502;7.218;2023-08-06T03:00:12;99445.50;;;14.43;86.85
23059;BME280;30585;51.502;7.218;2023-08-06T03:02:41;99488.84;;;14.77;86.50
23059;BME280;30585;51.502;7.218;2023-08-06T03:05:09;99369.84;;;14.06;86.36
23059;BME280;30585;51.502;7.218;2023-08-06T03:07:38;99375.09;;;13.99;86.38
23059;BME280;30585;51.502;7.218;2023-08-06T03:10:06;99490.00;;;14.58;86.77
23059;BME280;30585;51.502;7.218;2023-08-06T03:12:34;99205.34;;;12.96;86.33
23059;BME280;30585;51.502;7.218;2023-08-06T03:15:03;99472.00;;;14.57;86.14
23059;BME280;30585;51.502;7.218;2023-08-06T03:17:31;99470.88;;;14.34;86.28
23059;BME280;30585;51.502;7.218;2023-08-06T03:20:00;99480.47;;;14.54;86.46
23059;BME280;30585;51.502;7.218;2023-08-06T03:22:28;99472.66;;;14.51;86.86
23059;BME280;30585;51.502;7.218;2023-08-06T03:24:55;99469.25;;;14.49;86.80
23059;BME280;30585;51.502;7.218;2023-08-06T03:27:23;99438.34;;;14.00;87.81
23059;BME280;30585;51.502;7.218;2023-08-06T03:29:51;99487.16;;;14.34;87.21
23059;BME280;30585;51.502;7.218;2023-08-06T03:32:19;99464.84;;;14.14;87.21
23059;BME280;30585;51.502;7.218;2023-08-06T03:34:47;99468.97;;;14.26;87.32
23059;BME280;30585;51.502;7.218;2023-08-06T03:37:16;99359.28;;;13.53;87.51
23059;BME280;30585;51.502;7.218;2023-08-06T03:39:44;99210.78;;;12.71;87.62
23059;BME280;30585;51.502;7.218;2023-08-06T03:42:11;99394.69;;;13.85;87.71
23059;BME280;30585;51.502;7.218;2023-08-06T03:44:39;99477.84;;;14.36;87.18
23059;BME280;30585;51.502;7.218;2023-08-06T03:47:07;99479.84;;;14.34;87.62
23059;BME280;30585;51.502;7.218;2023-08-06T03:49:35;99471.41;;;14.37;87.91
23059;BME280;30585;51.502;7.218;2023-08-06T03:52:03;99458.94;;;14.19;87.99
23059;BME280;30585;51.502;7.218;2023-08-06T03:54:33;99439.03;;;14.10;87.84
23059;BME280;30585;51.502;7.218;2023-08-06T03:57:01;99347.75;;;13.51;87.66
23059;BME280;30585;51.502;7.218;2023-08-06T03:59:29;99463.75;;;14.33;88.44
23059;BME280;30585;51.502;7.218;2023-08-06T04:01:56;99304.66;;;13.40;88.07
23059;BME280;30585;51.502;7.218;2023-08-06T04:04:24;99461.34;;;14.30;88.04
23059;BME280;30585;51.502;7.218;2023-08-06T04:06:52;99472.03;;;14.31;88.43
23059;BME280;30585;51.502;7.218;2023-08-06T04:09:20;99464.94;;;14.38;88.08
23059;BME280;30585;51.502;7.218;2023-08-06T04:11:49;99375.50;;;13.79;88.08
23059;BME280;30585;51.502;7.218;2023-08-06T04:14:17;99464.25;;;14.36;87.58
23059;BME280;30585;51.502;7.218;2023-08-06T04:16:45;99259.84;;;13.19;88.13
23059;BME280;30585;51.502;7.218;2023-08-06T04:19:13;99424.31;;;14.13;88.31
23059;BME280;30585;51.502;7.218;2023-08-06T04:21:41;99459.53;;;14.38;87.93
23059;BME280;30585;51.502;7.218;2023-08-06T04:24:09;99346.97;;;13.66;87.67
23059;BME280;30585;51.502;7.218;2023-08-06T04:26:36;99452.47;;;14.46;87.62
23059;BME280;30585;51.502;7.218;2023-08-06T04:29:05;99457.97;;;14.36;87.67
23059;BME280;30585;51.502;7.218;2023-08-06T04:31:34;99246.91;;;13.13;86.73
23059;BME280;30585;51.502;7.218;2023-08-06T04:34:02;99455.69;;;14.49;86.20
23059;BME280;30585;51.502;7.218;2023-08-06T04:36:30;99465.19;;;14.45;85.99
23059;BME280;30585;51.502;7.218;2023-08-06T04:38:58;99361.78;;;13.80;87.11
23059;BME280;30585;51.502;7.218;2023-08-06T04:41:26;99460.41;;;14.47;87.14
23059;BME280;30585;51.502;7.218;2023-08-06T04:43:53;99486.56;;;14.48;87.03
23059;BME280;30585;51.502;7.218;2023-08-06T04:46:23;99461.78;;;14.43;87.00
23059;BME280;30585;51.502;7.218;2023-08-06T04:48:50;99466.03;;;14.46;86.85
23059;BME280;30585;51.502;7.218;2023-08-06T04:51:18;99454.09;;;14.38;86.75
23059;BME280;30585;51.502;7.218;2023-08-06T04:53:46;99458.50;;;14.40;86.80
23059;BME280;30585;51.502;7.218;2023-08-06T04:56:14;99476.28;;;14.34;87.26
23059;BME280;30585;51.502;7.218;2023-08-06T04:58:42;99370.66;;;13.90;87.01
23059;BME280;30585;51.502;7.218;2023-08-06T05:01:09;99450.25;;;14.41;87.00
23059;BME280;30585;51.502;7.218;2023-08-06T05:03:38;99487.16;;;14.34;87.06
23059;BME280;30585;51.502;7.218;2023-08-06T05:06:06;99457.97;;;14.36;87.13
23059;BME280;30585;51.502;7.218;2023-08-06T05:08:34;99462.41;;;14.37;87.04
23059;BME280;30585;51.502;7.218;2023-08-06T05:11:02;99465.59;;;14.32;87.53
23059;BME280;30585;51.502;7.218;2023-08-06T05:13:30;99409.63;;;13.89;87.00
23059;BME280;30585;51.502;7.218;2023-08-06T05:15:58;99470.00;;;14.33;88.10
23059;BME280;30585;51.502;7.218;2023-08-06T05:18:25;99479.69;;;14.36;87.57
23059;BME280;30585;51.502;7.218;2023-08-06T05:20:55;99402.66;;;13.87;87.96
23059;BME280;30585;51.502;7.218;2023-08-06T05:23:23;99495.06;;;14.45;87.72
23059;BME280;30585;51.502;7.218;2023-08-06T05:25:50;99418.13;;;13.94;88.27
23059;BME280;30585;51.502;7.218;2023-08-06T05:28:18;99429.44;;;14.24;87.55
23059;BME280;30585;51.502;7.218;2023-08-06T05:30:46;99457.53;;;14.49;87.93
23059;BME280;30585;51.502;7.218;2023-08-06T05:33:14;99490.69;;;14.68;87.43
23059;BME280;30585;51.502;7.218;2023-08-06T05:35:42;99444.41;;;14.36;87.36
23059;BME280;30585;51.502;7.218;2023-08-06T05:38:11;99496.84;;;14.79;87.12
23059;BME280;30585;51.502;7.218;2023-08-06T05:40:39;99467.41;;;14.58;87.42
23059;BME280;30585;51.502;7.218;2023-08-06T05:43:07;99497.56;;;14.89;87.65
23059;BME280;30585;51.502;7.218;2023-08-06T05:45:34;99494.69;;;14.98;87.17
23059;BME280;30585;51.502;7.218;2023-08-06T05:48:02;99497.56;;;14.97;87.96
23059;BME280;30585;51.502;7.218;2023-08-06T05:50:30;99459.84;;;14.78;87.15
23059;BME280;30585;51.502;7.218;2023-08-06T05:52:58;99441.66;;;14.78;87.62
23059;BME280;30585;51.502;7.218;2023-08-06T05:55:29;99362.53;;;14.41;87.37
23059;BME280;30585;51.502;7.218;2023-08-06T05:57:58;99492.69;;;15.33;87.40
23059;BME280;30585;51.502;7.218;2023-08-06T06:00:26;99396.53;;;14.93;87.17
23059;BME280;30585;51.502;7.218;2023-08-06T06:02:53;99454.44;;;15.51;86.62
23059;BME280;30585;51.502;7.218;2023-08-06T06:05:21;99511.88;;;15.96;84.10
23059;BME280;30585;51.502;7.218;2023-08-06T06:07:49;99531.94;;;15.95;83.53
23059;BME280;30585;51.502;7.218;2023-08-06T06:10:17;99469.75;;;15.60;82.48
23059;BME280;30585;51.502;7.218;2023-08-06T06:12:46;99365.13;;;14.99;83.46
23059;BME280;30585;51.502;7.218;2023-08-06T06:15:14;99442.56;;;15.52;84.71
23059;BME280;30585;51.502;7.218;2023-08-06T06:17:42;99532.97;;;15.86;84.43
23059;BME280;30585;51.502;7.218;2023-08-06T06:20:10;99361.38;;;14.67;82.77
23059;BME280;30585;51.502;7.218;2023-08-06T06:22:38;99454.63;;;15.41;82.18
23059;BME280;30585;51.502;7.218;2023-08-06T06:25:06;99515.41;;;16.13;83.77
23059;BME280;30585;51.502;7.218;2023-08-06T06:27:34;99513.88;;;16.11;84.30
23059;BME280;30585;51.502;7.218;2023-08-06T06:30:04;99520.34;;;16.10;84.95
23059;BME280;30585;51.502;7.218;2023-08-06T06:32:33;99487.38;;;15.96;80.50
23059;BME280;30585;51.502;7.218;2023-08-06T06:35:01;99479.19;;;16.04;80.63
23059;BME280;30585;51.502;7.218;2023-08-06T06:37:29;99491.44;;;16.08;81.13
23059;BME280;30585;51.502;7.218;2023-08-06T06:39:57;99367.47;;;15.34;81.93
23059;BME280;30585;51.502;7.218;2023-08-06T06:42:25;99445.91;;;15.94;83.24
23059;BME280;30585;51.502;7.218;2023-08-06T06:44:53;99256.31;;;14.76;80.72
23059;BME280;30585;51.502;7.218;2023-08-06T06:47:22;99316.50;;;15.28;79.85
23059;BME280;30585;51.502;7.218;2023-08-06T06:49:50;99393.91;;;15.81;80.15
23059;BME280;30585;51.502;7.218;2023-08-06T06:52:18;99475.09;;;16.17;82.37
23059;BME280;30585;51.502;7.218;2023-08-06T06:54:46;99326.84;;;15.41;81.09
23059;BME280;30585;51.502;7.218;2023-08-06T06:57:14;99536.31;;;16.76;79.26
23059;BME280;30585;51.502;7.218;2023-08-06T06:59:42;99526.25;;;16.77;78.50
23059;BME280;30585;51.502;7.218;2023-08-06T07:02:10;99458.41;;;16.51;78.99
23059;BME280;30585;51.502;7.218;2023-08-06T07:04:39;99461.72;;;16.46;79.33
23059;BME280;30585;51.502;7.218;2023-08-06T07:07:07;99504.00;;;16.96;80.02
23059;BME280;30585;51.502;7.218;2023-08-06T07:09:35;99473.28;;;16.79;78.25
23059;BME280;30585;51.502;7.218;2023-08-06T07:12:03;99511.56;;;17.17;79.27
23059;BME280;30585;51.502;7.218;2023-08-06T07:14:31;99522.25;;;16.64;76.41
23059;BME280;30585;51.502;7.218;2023-08-06T07:16:59;99520.94;;;16.91;77.89
23059;BME280;30585;51.502;7.218;2023-08-06T07:19:27;99520.69;;;17.01;77.55
23059;BME280;30585;51.502;7.218;2023-08-06T07:21:57;99451.59;;;16.55;78.01
23059;BME280;30585;51.502;7.218;2023-08-06T07:24:24;99458.88;;;16.62;76.65
23059;BME280;30585;51.502;7.218;2023-08-06T07:26:52;99537.41;;;16.98;79.48
23059;BME280;30585;51.502;7.218;2023-08-06T07:29:20;99482.56;;;16.62;76.33
23059;BME280;30585;51.502;7.218;2023-08-06T07:31:48;99368.94;;;16.08;78.30
23059;BME280;30585;51.502;7.218;2023-08-06T07:34:18;99300.16;;;15.92;78.33
23059;BME280;30585;51.502;7.218;2023-08-06T07:36:46;99534.78;;;17.35;78.52
23059;BME280;30585;51.502;7.218;2023-08-06T07:39:15;99530.34;;;17.12;76.17
23059;BME280;30585;51.502;7.218;2023-08-06T07:41:43;99545.03;;;17.33;76.44
23059;BME280;30585;51.502;7.218;2023-08-06T07:44:12;99506.94;;;17.17;75.30
23059;BME280;30585;51.502;7.218;2023-08-06T07:46:40;99550.84;;;17.53;76.91
23059;BME280;30585;51.502;7.218;2023-08-06T07:49:09;99544.09;;;17.41;76.66
23059;BME280;30585;51.502;7.218;2023-08-06T07:51:38;99518.53;;;17.19;77.28
23059;BME280;30585;51.502;7.218;2023-08-06T07:54:07;99458.44;;;16.90;78.79
23059;BME280;30585;51.502;7.218;2023-08-06T07:56:36;99433.28;;;16.80;78.82
23059;BME280;30585;51.502;7.218;2023-08-06T07:59:04;99530.19;;;17.36;78.60
23059;BME280;30585;51.502;7.218;2023-08-06T08:01:32;99557.81;;;17.33;78.59
23059;BME280;30585;51.502;7.218;2023-08-06T08:03:59;99551.22;;;17.19;79.49
23059;BME280;30585;51.502;7.218;2023-08-06T08:06:27;99425.34;;;16.70;79.17
23059;BME280;30585;51.502;7.218;2023-08-06T08:08:55;99551.50;;;17.55;77.88
23059;BME280;30585;51.502;7.218;2023-08-06T08:11:23;99467.47;;;17.13;77.63
23059;BME280;30585;51.502;7.218;2023-08-06T08:13:52;99342.84;;;16.53;78.57
23059;BME280;30585;51.502;7.218;2023-08-06T08:16:20;99553.63;;;17.91;75.55
23059;BME280;30585;51.502;7.218;2023-08-06T08:18:48;99441.22;;;17.12;76.19
23059;BME280;30585;51.502;7.218;2023-08-06T08:21:16;99515.44;;;17.68;76.85
23059;BME280;30585;51.502;7.218;2023-08-06T08:23:44;99550.75;;;18.07;77.07
23059;BME280;30585;51.502;7.218;2023-08-06T08:26:12;99454.69;;;17.51;75.41
23059;BME280;30585;51.502;7.218;2023-08-06T08:28:39;99414.13;;;17.33;73.19
23059;BME280;30585;51.502;7.218;2023-08-06T08:31:09;99537.94;;;18.07;75.12
23059;BME280;30585;51.502;7.218;2023-08-06T08:33:38;99444.09;;;17.56;74.58
23059;BME280;30585;51.502;7.218;2023-08-06T08:36:06;99558.31;;;18.20;74.73
23059;BME280;30585;51.502;7.218;2023-08-06T08:38:33;99537.31;;;18.20;75.08
23059;BME280;30585;51.502;7.218;2023-08-06T08:41:01;99474.84;;;17.88;74.66
23059;BME280;30585;51.502;7.218;2023-08-06T08:43:30;99555.56;;;18.20;73.72
23059;BME280;30585;51.502;7.218;2023-08-06T08:45:58;99554.66;;;18.27;76.40
23059;BME280;30585;51.502;7.218;2023-08-06T08:48:28;99583.25;;;18.31;73.67
23059;BME280;30585;51.502;7.218;2023-08-06T08:50:56;99556.72;;;18.40;74.45
23059;BME280;30585;51.502;7.218;2023-08-06T08:53:25;99524.31;;;18.22;74.20
23059;BME280;30585;51.502;7.218;2023-08-06T08:55:54;99538.63;;;18.24;76.02
23059;BME280;30585;51.502;7.218;2023-08-06T08:58:22;99483.13;;;18.09;73.88
23059;BME280;30585;51.502;7.218;2023-08-06T09:00:50;99562.69;;;18.73;73.78
23059;BME280;30585;51.502;7.218;2023-08-06T09:03:19;99508.59;;;18.39;74.36
23059;BME280;30585;51.502;7.218;2023-08-06T09:05:52;99521.94;;;18.34;72.64
23059;BME280;30585;51.502;7.218;2023-08-06T09:08:27;99561.63;;;18.30;73.32
23059;BME280;30585;51.502;7.218;2023-08-06T09:10:55;99547.97;;;18.44;73.90
23059;BME280;30585;51.502;7.218;2023-08-06T09:13:24;99570.50;;;18.61;74.44
23059;BME280;30585;51.502;7.218;2023-08-06T09:15:52;99586.31;;;18.51;73.37
23059;BME280;30585;51.502;7.218;2023-08-06T09:18:25;99478.25;;;18.04;75.54
23059;BME280;30585;51.502;7.218;2023-08-06T09:20:55;99573.69;;;18.50;72.69
23059;BME280;30585;51.502;7.218;2023-08-06T09:23:28;99578.47;;;18.33;72.63
23059;BME280;30585;51.502;7.218;2023-08-06T09:25:57;99553.19;;;18.02;73.65
23059;BME280;30585;51.502;7.218;2023-08-06T09:28:36;99538.41;;;17.96;73.18
23059;BME280;30585;51.502;7.218;2023-08-06T09:31:05;99586.28;;;18.22;73.21
23059;BME280;30585;51.502;7.218;2023-08-06T09:33:33;99597.19;;;18.22;72.75
23059;BME280;30585;51.502;7.218;2023-08-06T09:36:09;99532.25;;;17.57;74.31
23059;BME280;30585;51.502;7.218;2023-08-06T09:38:38;99555.88;;;17.87;72.03
23059;BME280;30585;51.502;7.218;2023-08-06T09:41:06;99566.78;;;17.87;73.04
23059;BME280;30585;51.502;7.218;2023-08-06T09:43:41;99598.22;;;18.06;72.80
23059;BME280;30585;51.502;7.218;2023-08-06T09:46:13;99562.34;;;17.86;74.25
23059;BME280;30585;51.502;7.218;2023-08-06T09:48:46;99597.81;;;18.09;75.89
23059;BME280;30585;51.502;7.218;2023-08-06T09:51:16;99552.19;;;17.80;73.93
23059;BME280;30585;51.502;7.218;2023-08-06T09:53:45;99604.59;;;18.13;73.75
23059;BME280;30585;51.502;7.218;2023-08-06T09:56:15;99570.13;;;17.97;73.90
23059;BME280;30585;51.502;7.218;2023-08-06T09:58:45;99574.50;;;18.06;74.13
23059;BME280;30585;51.502;7.218;2023-08-06T10:01:16;99600.91;;;18.29;72.92
23059;BME280;30585;51.502;7.218;2023-08-06T10:03:46;99604.47;;;18.29;72.97
23059;BME280;30585;51.502;7.218;2023-08-06T10:06:16;99611.53;;;18.38;72.99
23059;BME280;30585;51.502;7.218;2023-08-06T10:08:45;99601.94;;;18.57;71.96
23059;BME280;30585;51.502;7.218;2023-08-06T10:11:14;99595.06;;;18.47;70.16
23059;BME280;30585;51.502;7.218;2023-08-06T10:13:42;99497.88;;;17.85;70.35
23059;BME280;30585;51.502;7.218;2023-08-06T10:16:11;99601.19;;;18.49;71.17
23059;BME280;30585;51.502;7.218;2023-08-06T10:18:40;99596.44;;;18.65;70.54
23059;BME280;30585;51.502;7.218;2023-08-06T10:21:08;99594.47;;;18.74;70.38
23059;BME280;30585;51.502;7.218;2023-08-06T10:23:40;99596.06;;;18.68;72.40
23059;BME280;30585;51.502;7.218;2023-08-06T10:26:08;99513.19;;;18.24;73.03
23059;BME280;30585;51.502;7.218;2023-08-06T10:28:37;99470.34;;;18.09;71.15
23059;BME280;30585;51.502;7.218;2023-08-06T10:31:05;99588.41;;;18.78;72.80
23059;BME280;30585;51.502;7.218;2023-08-06T10:33:41;99589.91;;;18.96;73.07
23059;BME280;30585;51.502;7.218;2023-08-06T10:36:10;99594.59;;;19.02;68.86
23059;BME280;30585;51.502;7.218;2023-08-06T10:38:47;99585.44;;;19.09;69.58
23059;BME280;30585;51.502;7.218;2023-08-06T10:41:16;99591.94;;;19.44;69.79
23059;BME280;30585;51.502;7.218;2023-08-06T10:43:47;99564.19;;;19.26;69.21
23059;BME280;30585;51.502;7.218;2023-08-06T10:46:23;99578.69;;;19.41;68.32
23059;BME280;30585;51.502;7.218;2023-08-06T10:48:51;99592.41;;;19.63;70.37
23059;BME280;30585;51.502;7.218;2023-08-06T10:51:19;99591.50;;;19.77;71.83
23059;BME280;30585;51.502;7.218;2023-08-06T10:53:49;99465.84;;;19.18;70.42
23059;BME280;30585;51.502;7.218;2023-08-06T10:56:19;99599.19;;;20.09;69.50
23059;BME280;30585;51.502;7.218;2023-08-06T10:58:49;99607.50;;;20.23;67.26
23059;BME280;30585;51.502;7.218;2023-08-06T11:01:18;99516.34;;;19.37;65.78
23059;BME280;30585;51.502;7.218;2023-08-06T11:03:46;99608.69;;;19.92;68.05
23059;BME280;30585;51.502;7.218;2023-08-06T11:06:17;99602.25;;;20.00;67.97
23059;BME280;30585;51.502;7.218;2023-08-06T11:08:49;99515.22;;;19.31;68.83
23059;BME280;30585;51.502;7.218;2023-08-06T11:11:18;99627.22;;;19.90;68.17
23059;BME280;30585;51.502;7.218;2023-08-06T11:13:47;99602.56;;;19.90;68.86
23059;BME280;30585;51.502;7.218;2023-08-06T11:16:17;99478.06;;;19.22;67.54
23059;BME280;30585;51.502;7.218;2023-08-06T11:18:45;99606.03;;;19.56;70.32
23059;BME280;30585;51.502;7.218;2023-08-06T11:21:14;99547.31;;;19.44;70.33
23059;BME280;30585;51.502;7.218;2023-08-06T11:23:41;99458.88;;;18.94;69.87
23059;BME280;30585;51.502;7.218;2023-08-06T11:26:11;99613.13;;;19.51;70.59
23059;BME280;30585;51.502;7.218;2023-08-06T11:28:42;99647.69;;;19.73;70.39
23059;BME280;30585;51.502;7.218;2023-08-06T11:31:18;99613.66;;;19.61;67.65
23059;BME280;30585;51.502;7.218;2023-08-06T11:33:46;99613.41;;;19.77;68.83
23059;BME280;30585;51.502;7.218;2023-08-06T11:36:14;99541.91;;;19.65;70.67
23059;BME280;30585;51.502;7.218;2023-08-06T11:38:42;99527.56;;;19.63;65.52
23059;BME280;30585;51.502;7.218;2023-08-06T11:41:12;99614.03;;;19.58;67.09
23059;BME280;30585;51.502;7.218;2023-08-06T11:43:39;99599.06;;;19.75;67.55
23059;BME280;30585;51.502;7.218;2023-08-06T11:46:07;99612.31;;;20.21;69.12
23059;BME280;30585;51.502;7.218;2023-08-06T11:48:50;99620.41;;;20.50;68.07
23059;BME280;30585;51.502;7.218;2023-08-06T11:51:18;99593.00;;;20.01;68.37
23059;BME280;30585;51.502;7.218;2023-08-06T11:53:49;99616.69;;;19.87;69.96
23059;BME280;30585;51.502;7.218;2023-08-06T11:56:19;99621.47;;;20.28;69.98
23059;BME280;30585;51.502;7.218;2023-08-06T11:58:47;99323.72;;;18.25;69.07
23059;BME280;30585;51.502;7.218;2023-08-06T12:01:15;99612.66;;;19.68;68.91
23059;BME280;30585;51.502;7.218;2023-08-06T12:03:43;99519.34;;;19.06;66.66
23059;BME280;30585;51.502;7.218;2023-08-06T12:06:11;99640.59;;;19.78;68.88
23059;BME280;30585;51.502;7.218;2023-08-06T12:08:38;99643.91;;;19.74;68.07
23059;BME280;30585;51.502;7.218;2023-08-06T12:11:08;99652.75;;;19.55;69.59
23059;BME280;30585;51.502;7.218;2023-08-06T12:13:38;99678.59;;;19.52;71.41
23059;BME280;30585;51.502;7.218;2023-08-06T12:16:05;99665.13;;;19.21;72.40
23059;BME280;30585;51.502;7.218;2023-08-06T12:18:34;99673.44;;;18.84;73.40
23059;BME280;30585;51.502;7.218;2023-08-06T12:21:02;99599.66;;;17.94;76.21
23059;BME280;30585;51.502;7.218;2023-08-06T12:23:33;99642.97;;;18.20;75.06
23059;BME280;30585;51.502;7.218;2023-08-06T12:26:01;99677.44;;;18.21;76.14
23059;BME280;30585;51.502;7.218;2023-08-06T12:28:29;99647.34;;;17.52;76.72
23059;BME280;30585;51.502;7.218;2023-08-06T12:30:58;99688.41;;;17.90;77.85
23059;BME280;30585;51.502;7.218;2023-08-06T12:33:26;99704.00;;;17.81;78.00
23059;BME280;30585;51.502;7.218;2023-08-06T12:35:53;99570.44;;;16.95;78.40
23059;BME280;30585;51.502;7.218;2023-08-06T12:38:21;99708.41;;;17.51;78.73
23059;BME280;30585;51.502;7.218;2023-08-06T12:40:49;99717.22;;;17.22;79.94
23059;BME280;30585;51.502;7.218;2023-08-06T12:43:17;99727.25;;;17.30;78.95
23059;BME280;30585;51.502;7.218;2023-08-06T12:45:45;99717.63;;;17.03;80.43
23059;BME280;30585;51.502;7.218;2023-08-06T12:48:14;99721.88;;;17.05;79.73
23059;BME280;30585;51.502;7.218;2023-08-06T12:50:42;99723.84;;;16.64;80.70
23059;BME280;30585;51.502;7.218;2023-08-06T12:53:10;99723.28;;;16.61;80.52
23059;BME280;30585;51.502;7.218;2023-08-06T12:55:37;99722.97;;;16.39;81.60
23059;BME280;30585;51.502;7.218;2023-08-06T12:58:07;99729.25;;;16.56;80.97
23059;BME280;30585;51.502;7.218;2023-08-06T13:00:34;99729.78;;;16.35;81.31
23059;BME280;30585;51.502;7.218;2023-08-06T13:03:03;99722.28;;;16.13;81.09
23059;BME280;30585;51.502;7.218;2023-08-06T13:05:32;99739.13;;;16.33;81.28
23059;BME280;30585;51.502;7.218;2023-08-06T13:08:00;99622.00;;;15.35;81.92